Strona główna
METAR-TAF:

METAR-TAF

Lotnisko :

Port lotniczy Dżakarta-Soekarno-Hatta

Dżakarta, Jawa, Indonezja

Szerokość geograficzna: 06-07S, Długość geograficzna: 106-39E, wysokość: 8 m

Aktualna obserwacja pogody

Raport powstał 25 minut temu, godzina 05:00 UTC
Wiatr 8 kt od zachód
Temperatura 30°C
Wilgotność 70%
Ciśnienie 1012 hPa
Widzialność: 8000 m
Rozproszone chmury na wysokości 1800 ft

METAR: WIII 170500Z 28008KT 8000 SCT018 30/24 Q1012 NOSIG

czas: 12:25 (05:25 UTC)

Prognoza

Raport powstał 6 godziny i 25 minut temu, godzina 23:00 UTC
Prognoza ważna od 17 godzina 00 UTC do 18 godzina 06 UTC
Wiatr 10 kt od północno-północny zachód
Widzialność: 9000 m
Rozproszone chmury na wysokości 2000 ft
Przejściowo
od 17 godzina 04 UTC do 17 godzina 08 UTC
Widzialność: 4000 m
Mało chmury na wysokości 1800 ft, Cumulonimbus.
burza, słaby deszcz

TAF: WIII 162300Z 1700/1806 33010KT 9000 SCT020 TEMPO 1704/1708 4000 -TSRA FEW018CB

Obserwacja i prognoza pogody dla ponad 4000 lotnisk (raport METAR i TAF).

Dostępne stacje oznaczono żółtymi i czerwonymi punktami na mapie.

Najedź kursorem aby zobaczyć nazwę stacji.

Kliknij aby zobaczyć obserwacje i prognozy pogody.

Aby zmienić mapę: kliknij na zielony przycisk z czarnym krzyżykiem, aby powiększyć; na zielony przycisk z myślnikiem, aby pomniejszyć; na zielone strzałki, aby przejść do map sąsiednich.


METAR-TAF: